Time;durP1;ratioP1;P1;durP2;ratioP2;P2;SDS_P1;SDS_P2;PMS_P1;PMS_P2;Temp;Humidity;BMP_temperature;BMP_pressure;BME280_temperature;BME280_humidity;BME280_pressure;Samples;Min_cycle;Max_cycle;Signal;HPM_P1;HPM_P2
2022/02/25 00:00:33;;;;;;;38.58;23.17;;;;;;;2.71;100.00;100523.09;5011442;28;20095;-61
2022/02/25 00:02:59;;;;;;;34.67;22.50;;;;;;;2.97;100.00;100550.19;5011282;28;20149;-62
2022/02/25 00:05:25;;;;;;;33.95;22.70;;;;;;;2.81;100.00;100557.53;5011473;28;20026;-61
2022/02/25 00:07:50;;;;;;;38.42;22.25;;;;;;;2.94;100.00;100540.13;5011418;28;20476;-62
2022/02/25 00:10:15;;;;;;;31.85;21.98;;;;;;;2.98;100.00;100541.84;5011240;28;20045;-62
2022/02/25 00:12:41;;;;;;;39.05;23.08;;;;;;;3.02;100.00;100616.38;5011211;28;20036;-62
2022/02/25 00:15:07;;;;;;;40.90;23.92;;;;;;;2.72;100.00;100534.81;5010942;28;20033;-62
2022/02/25 00:17:32;;;;;;;39.25;23.17;;;;;;;3.17;100.00;100604.00;5011318;28;20042;-62
2022/02/25 00:19:57;;;;;;;41.72;25.50;;;;;;;3.12;100.00;100599.75;5011052;28;20038;-63
2022/02/25 00:22:23;;;;;;;50.35;31.20;;;;;;;3.06;100.00;100542.78;5011439;28;20084;-61
2022/02/25 00:24:49;;;;;;;56.28;31.98;;;;;;;2.76;100.00;100536.53;5011137;28;20049;-62
2022/02/25 00:27:14;;;;;;;40.42;25.05;;;;;;;2.87;100.00;100527.50;5010735;28;20060;-62
2022/02/25 00:29:40;;;;;;;28.67;20.00;;;;;;;3.18;100.00;100604.84;5010619;28;20041;-62
2022/02/25 00:32:05;;;;;;;22.60;14.30;;;;;;;3.15;100.00;100535.31;5011130;28;20037;-62
2022/02/25 00:34:31;;;;;;;25.15;16.25;;;;;;;3.39;100.00;100588.34;5009550;28;20033;-61
2022/02/25 00:36:57;;;;;;;22.08;13.77;;;;;;;3.51;100.00;100580.09;5011063;28;20061;-61
2022/02/25 00:39:22;;;;;;;27.35;16.55;;;;;;;3.58;100.00;100571.81;5010672;28;20028;-61
2022/02/25 00:41:47;;;;;;;22.05;13.77;;;;;;;3.79;100.00;100579.53;5010477;28;20026;-61
2022/02/25 00:44:13;;;;;;;17.30;10.70;;;;;;;3.97;100.00;100547.00;5010547;28;20120;-62
2022/02/25 00:46:39;;;;;;;16.52;9.93;;;;;;;3.95;100.00;100500.03;5010848;28;20034;-61
2022/02/25 00:49:04;;;;;;;23.20;14.32;;;;;;;4.39;100.00;100559.88;5010831;28;20030;-61
2022/02/25 00:51:30;;;;;;;17.73;11.30;;;;;;;4.12;100.00;100561.38;5010682;28;20502;-63
2022/02/25 00:53:55;;;;;;;17.95;12.38;;;;;;;4.08;100.00;100511.88;5010839;28;20045;-61
2022/02/25 00:56:21;;;;;;;17.65;12.43;;;;;;;4.35;100.00;100558.19;5009443;28;20033;-61
2022/02/25 00:58:47;;;;;;;15.10;9.55;;;;;;;3.90;100.00;100471.50;5010722;28;20034;-62
2022/02/25 01:03:44;;;;;;;14.45;9.65;;;;;;;4.27;100.00;100516.19;4057323;28;10000692;-62
2022/02/25 01:06:11;;;;;;;15.57;9.88;;;;;;;4.05;100.00;100499.25;4948810;28;20047;-61
2022/02/25 01:08:36;;;;;;;14.88;10.10;;;;;;;4.27;100.00;100501.94;4948948;28;20492;-62
2022/02/25 01:11:01;;;;;;;16.58;10.20;;;;;;;4.34;100.00;100558.16;4948243;28;20074;-62
2022/02/25 01:13:27;;;;;;;11.25;8.05;;;;;;;3.70;100.00;100495.66;4948795;28;20086;-62
2022/02/25 01:15:52;;;;;;;12.40;8.63;;;;;;;3.82;100.00;100501.63;4948394;28;20049;-61
2022/02/25 01:18:18;;;;;;;12.02;8.40;;;;;;;3.72;100.00;100509.06;4963520;28;20035;-62
2022/02/25 01:20:43;;;;;;;13.38;9.10;;;;;;;4.18;100.00;100554.69;4977654;28;20105;-61
2022/02/25 01:23:09;;;;;;;13.70;8.73;;;;;;;3.94;100.00;100523.50;4968192;28;20026;-62
2022/02/25 01:25:35;;;;;;;15.15;9.65;;;;;;;3.72;100.00;100496.50;4966444;28;20039;-62
2022/02/25 01:28:00;;;;;;;13.93;9.23;;;;;;;3.43;100.00;100446.00;4967808;28;20070;-62
2022/02/25 01:30:26;;;;;;;14.57;8.20;;;;;;;4.14;100.00;100554.69;4967819;28;20078;-62
2022/02/25 01:32:51;;;;;;;16.50;11.25;;;;;;;3.81;100.00;100502.44;4982875;28;20041;-62
2022/02/25 01:35:17;;;;;;;17.92;12.13;;;;;;;3.85;100.00;100536.84;4966761;28;20027;-62
2022/02/25 01:37:44;;;;;;;16.48;11.80;;;;;;;3.93;100.00;100484.09;4967956;28;20468;-62
2022/02/25 01:40:10;;;;;;;17.30;12.10;;;;;;;4.07;100.00;100542.88;4967275;28;20023;-62
2022/02/25 01:42:50;;;;;;;15.77;10.57;;;;;;;4.34;100.00;100538.00;4982970;28;20118;-62
2022/02/25 01:45:16;;;;;;;13.85;8.75;;;;;;;4.39;100.00;100542.25;4967346;28;20097;-61
2022/02/25 01:47:41;;;;;;;13.57;9.07;;;;;;;4.06;100.00;100478.31;4967923;28;20129;-62
2022/02/25 01:50:08;;;;;;;17.02;10.27;;;;;;;4.32;100.00;100539.69;4968139;28;20201;-62
2022/02/25 01:52:33;;;;;;;14.27;9.68;;;;;;;3.85;100.00;100481.53;4967121;28;20026;-62
2022/02/25 01:54:59;;;;;;;12.38;9.07;;;;;;;3.73;100.00;100471.38;4982742;28;20409;-62
2022/02/25 01:57:24;;;;;;;14.02;9.05;;;;;;;4.27;100.00;100534.63;4982476;28;20477;-62
2022/02/25 01:59:50;;;;;;;16.02;10.13;;;;;;;3.92;100.00;100537.75;4981875;28;20536;-62
2022/02/25 02:02:16;;;;;;;13.60;8.52;;;;;;;3.29;100.00;100427.44;4967132;28;20061;-62
2022/02/25 02:04:41;;;;;;;11.38;7.78;;;;;;;3.97;100.00;100536.09;4971996;28;20508;-62
2022/02/25 02:07:08;;;;;;;11.80;7.70;;;;;;;4.12;100.00;100542.06;4970614;28;20035;-62
2022/02/25 02:09:34;;;;;;;11.68;7.30;;;;;;;4.23;100.00;100534.59;4971130;28;20037;-62
2022/02/25 02:12:00;;;;;;;10.38;7.10;;;;;;;4.23;100.00;100539.63;4971330;28;20054;-62
2022/02/25 02:14:25;;;;;;;9.80;6.50;;;;;;;4.52;100.00;100535.59;4970692;28;20540;-62
2022/02/25 02:16:55;;;;;;;15.63;8.60;;;;;;;4.39;100.00;100539.75;4970957;28;20042;-62
2022/02/25 02:19:21;;;;;;;17.25;11.27;;;;;;;3.31;100.00;100523.75;4970876;28;20555;-62
2022/02/25 02:21:50;;;;;;;15.48;10.88;;;;;;;3.11;100.00;100541.16;4970561;28;20035;-62
2022/02/25 02:24:17;;;;;;;17.75;11.35;;;;;;;2.64;100.00;100489.56;4970783;28;20037;-62
2022/02/25 02:26:44;;;;;;;17.40;11.30;;;;;;;2.67;100.00;100470.34;4970079;28;20034;-62
2022/02/25 02:29:09;;;;;;;16.05;11.48;;;;;;;2.23;100.00;100475.66;4970895;28;20030;-62
2022/02/25 02:31:36;;;;;;;17.83;9.70;;;;;;;3.15;100.00;100550.41;4970732;28;20035;-61
2022/02/25 02:34:03;;;;;;;12.27;8.75;;;;;;;3.39;100.00;100520.50;4970368;28;20096;-62
2022/02/25 02:36:29;;;;;;;11.65;7.80;;;;;;;3.95;100.00;100550.31;4970008;28;20609;-62
2022/02/25 02:38:54;;;;;;;14.13;9.85;;;;;;;2.83;100.00;100470.53;4970326;28;20043;-62
2022/02/25 02:41:19;;;;;;;17.88;11.05;;;;;;;2.89;100.00;100538.41;4970410;28;20038;-62
2022/02/25 02:43:45;;;;;;;16.90;11.07;;;;;;;2.96;100.00;100547.66;4970667;28;20039;-62
2022/02/25 02:46:12;;;;;;;19.00;11.70;;;;;;;2.69;100.00;100544.84;4969131;28;20038;-62
2022/02/25 02:48:38;;;;;;;17.55;11.65;;;;;;;2.34;100.00;100520.09;4970245;28;20089;-62
2022/02/25 02:51:04;;;;;;;17.30;11.45;;;;;;;2.51;100.00;100547.94;4968072;28;20113;-62
2022/02/25 02:53:29;;;;;;;19.52;11.38;;;;;;;2.01;100.00;100494.56;4970454;28;20133;-61
2022/02/25 02:55:55;;;;;;;22.85;12.15;;;;;;;1.97;100.00;100502.00;4970373;28;20481;-62
2022/02/25 02:58:20;;;;;;;19.52;11.82;;;;;;;2.51;100.00;100548.78;4970377;28;20070;-63
2022/02/25 03:00:48;;;;;;;20.30;12.05;;;;;;;2.18;100.00;100547.47;4985039;28;20080;-62
2022/02/25 03:03:13;;;;;;;20.25;12.60;;;;;;;2.10;100.00;100537.31;4990643;28;20046;-62
2022/02/25 03:05:40;;;;;;;17.70;12.25;;;;;;;2.57;100.00;100533.81;4988898;28;20510;-62
2022/02/25 03:08:05;;;;;;;19.95;12.57;;;;;;;2.09;100.00;100464.59;4989418;28;20089;-62
2022/02/25 03:10:35;;;;;;;20.50;12.77;;;;;;;2.31;100.00;100520.09;4989589;28;20467;-62
2022/02/25 03:13:02;;;;;;;19.58;13.30;;;;;;;2.36;100.00;100530.16;4989431;28;20038;-62
2022/02/25 03:15:28;;;;;;;21.27;12.93;;;;;;;1.97;100.00;100471.94;4987955;28;20030;-62
2022/02/25 03:17:54;;;;;;;18.50;12.98;;;;;;;2.52;100.00;100527.88;4989183;28;20045;-62
2022/02/25 03:20:22;;;;;;;22.17;14.90;;;;;;;2.37;100.00;100530.19;4989521;28;20117;-62
2022/02/25 03:22:47;;;;;;;23.45;15.52;;;;;;;1.86;100.00;100413.31;4987764;28;20070;-62
2022/02/25 03:25:13;;;;;;;25.27;15.02;;;;;;;2.11;100.00;100463.81;4989093;28;20061;-61
2022/02/25 03:27:39;;;;;;;23.27;13.10;;;;;;;1.97;100.00;100529.59;4988404;28;20045;-61
2022/02/25 03:30:05;;;;;;;23.00;13.48;;;;;;;1.56;100.00;100467.16;4988976;28;20117;-62
2022/02/25 03:32:31;;;;;;;21.23;13.13;;;;;;;1.91;100.00;100524.47;4988678;28;20046;-62
2022/02/25 03:34:56;;;;;;;22.08;13.38;;;;;;;1.77;100.00;100502.56;4988673;28;20034;-62
2022/02/25 03:37:22;;;;;;;24.52;14.77;;;;;;;1.87;100.00;100525.25;4989077;28;20519;-61
2022/02/25 03:39:47;;;;;;;26.33;14.77;;;;;;;1.60;100.00;100468.03;4988519;28;20034;-62
2022/02/25 03:42:13;;;;;;;21.98;13.60;;;;;;;1.96;100.00;100515.38;4977782;28;20121;-62
2022/02/25 03:44:39;;;;;;;21.65;13.57;;;;;;;2.03;100.00;100515.50;4969014;28;20552;-62
2022/02/25 03:47:05;;;;;;;22.67;13.10;;;;;;;1.59;100.00;100517.28;4967972;28;20030;-62
2022/02/25 03:49:30;;;;;;;21.33;13.38;;;;;;;2.14;100.00;100516.47;4969136;28;20123;-63
2022/02/25 03:51:56;;;;;;;22.75;13.50;;;;;;;1.61;100.00;100432.16;4968538;28;20041;-62
2022/02/25 03:54:21;;;;;;;18.17;12.57;;;;;;;2.18;100.00;100509.88;4969365;28;20495;-61
2022/02/25 03:56:47;;;;;;;20.30;12.10;;;;;;;2.02;100.00;100513.78;4969098;28;20093;-62
2022/02/25 03:59:12;;;;;;;22.25;11.93;;;;;;;1.49;100.00;100465.38;4969348;28;20035;-62
2022/02/25 04:01:37;;;;;;;19.40;12.38;;;;;;;1.68;100.00;100474.84;4968787;28;20085;-62
2022/02/25 04:04:03;;;;;;;25.75;15.95;;;;;;;1.89;100.00;100533.63;4981771;28;20057;-63
2022/02/25 04:06:30;;;;;;;24.23;13.93;;;;;;;1.91;100.00;100505.28;4988295;28;20034;-61
2022/02/25 04:08:56;;;;;;;50.40;29.42;;;;;;;2.04;100.00;100511.31;4988346;28;20065;-62
2022/02/25 04:11:21;;;;;;;45.67;27.20;;;;;;;2.13;100.00;100531.50;4988451;28;20065;-62
2022/02/25 04:13:48;;;;;;;30.73;17.98;;;;;;;1.97;100.00;100542.97;4971518;28;20031;-62
2022/02/25 04:16:14;;;;;;;26.85;16.38;;;;;;;0.91;100.00;100431.81;4948871;28;20038;-63
2022/02/25 04:18:41;;;;;;;27.40;15.50;;;;;;;1.26;100.00;100481.69;4949488;28;20054;-62
2022/02/25 04:21:06;;;;;;;26.30;16.35;;;;;;;1.15;100.00;100522.34;4947909;28;20519;-62
2022/02/25 04:23:32;;;;;;;30.30;19.83;;;;;;;1.28;100.00;100502.56;4949315;28;20031;-62
2022/02/25 04:25:58;;;;;;;41.55;24.98;;;;;;;1.32;100.00;100440.88;4949236;28;21028;-62
2022/02/25 04:28:23;;;;;;;43.60;24.92;;;;;;;1.60;100.00;100496.47;4948591;28;20127;-62
2022/02/25 04:30:49;;;;;;;43.35;26.80;;;;;;;1.16;100.00;100457.28;4947717;28;20027;-61
2022/02/25 04:33:14;;;;;;;40.88;24.92;;;;;;;1.73;100.00;100522.53;4949576;28;20035;-61
2022/02/25 04:35:41;;;;;;;51.28;28.60;;;;;;;1.12;100.00;100442.19;4949260;28;20497;-62
2022/02/25 04:38:07;;;;;;;44.40;28.80;;;;;;;1.22;100.00;100464.06;4965855;28;20043;-62
2022/02/25 04:40:32;;;;;;;46.50;24.83;;;;;;;1.71;100.00;100519.16;4968197;28;20085;-62
2022/02/25 04:42:58;;;;;;;43.67;23.05;;;;;;;1.58;100.00;100498.09;4968536;28;20895;-61
2022/02/25 04:45:23;;;;;;;35.45;23.40;;;;;;;1.46;100.00;100477.00;4968240;28;20027;-62
2022/02/25 04:47:48;;;;;;;54.13;32.35;;;;;;;1.89;100.00;100519.44;4983275;28;20035;-61
2022/02/25 04:50:15;;;;;;;52.92;29.83;;;;;;;1.60;100.00;100466.41;4967389;28;20117;-62
2022/02/25 04:52:42;;;;;;;45.35;29.85;;;;;;;1.55;100.00;100452.94;4968053;28;20031;-61
2022/02/25 04:55:09;;;;;;;40.75;26.38;;;;;;;1.82;100.00;100504.31;4968505;28;20035;-62
2022/02/25 04:57:34;;;;;;;54.45;29.48;;;;;;;1.49;100.00;100497.06;4983229;28;20449;-62
2022/02/25 05:00:00;;;;;;;96.07;42.88;;;;;;;0.88;100.00;100445.97;4968489;28;20042;-61
2022/02/25 05:02:25;;;;;;;98.90;41.38;;;;;;;0.73;100.00;100429.81;4967371;28;20051;-62
2022/02/25 05:04:51;;;;;;;110.75;46.58;;;;;;;1.59;100.00;100498.91;4990819;28;20484;-61
2022/02/25 05:07:16;;;;;;;110.20;49.15;;;;;;;1.38;100.00;100503.56;4989450;28;20034;-61
2022/02/25 05:09:42;;;;;;;96.35;45.30;;;;;;;1.11;100.00;100443.03;4991166;28;20109;-62
2022/02/25 05:12:08;;;;;;;98.30;44.03;;;;;;;1.11;100.00;100453.03;4987368;28;20448;-61
2022/02/25 05:22:46;;;;;;;90.57;54.08;;;;;;;1.53;100.00;100503.81;4971555;28;20097;-63
2022/02/25 05:25:12;;;;;;;79.43;49.58;;;;;;;0.88;100.00;100455.13;4970953;28;20039;-61
2022/02/25 05:27:37;;;;;;;83.35;48.80;;;;;;;1.86;100.00;100496.84;4971473;28;20031;-61
2022/02/25 05:30:04;;;;;;;76.40;47.00;;;;;;;1.83;100.00;100510.97;4971480;28;20098;-60
2022/02/25 05:32:29;;;;;;;79.57;53.03;;;;;;;1.48;100.00;100417.75;4970588;28;20142;-61
2022/02/25 05:34:55;;;;;;;76.38;53.40;;;;;;;2.43;100.00;100502.69;4971287;28;20105;-61
2022/02/25 05:37:20;;;;;;;70.97;46.92;;;;;;;2.07;100.00;100511.34;4970589;28;20054;-61
2022/02/25 05:39:46;;;;;;;80.28;51.13;;;;;;;1.88;100.00;100462.63;4972522;28;20109;-62
2022/02/25 05:42:11;;;;;;;79.85;52.10;;;;;;;2.18;100.00;100494.81;4974888;28;20408;-63
2022/02/25 05:44:36;;;;;;;73.85;42.85;;;;;;;8.84;100.00;100483.50;4974730;28;20030;-63
2022/02/25 05:47:02;;;;;;;95.75;72.68;;;;;;;6.56;100.00;100503.91;4973899;28;20042;-63
2022/02/25 05:49:28;;;;;;;95.60;70.85;;;;;;;7.26;100.00;100518.72;4974257;28;20041;-64
2022/02/25 05:51:53;;;;;;;99.50;71.97;;;;;;;7.22;100.00;100489.25;4973486;28;20058;-63
2022/02/25 05:54:19;;;;;;;52.58;36.22;;;;;;;7.09;100.00;100442.16;4974083;28;20019;-64
2022/02/25 05:56:44;;;;;;;32.17;23.70;;;;;;;7.99;94.48;100493.72;4973651;28;20031;-64
2022/02/25 05:59:10;;;;;;;26.88;18.58;;;;;;;7.71;94.86;100486.38;4973271;28;20023;-64
2022/02/25 06:01:35;;;;;;;21.80;13.88;;;;;;;6.59;98.60;100485.38;4972136;28;20042;-63
2022/02/25 06:04:00;;;;;;;29.98;19.35;;;;;;;7.98;96.81;100492.06;4973527;28;20061;-64
2022/02/25 06:06:26;;;;;;;64.40;37.90;;;;;;;7.47;96.56;100495.81;4973209;28;20034;-64
2022/02/25 06:08:52;;;;;;;58.92;36.72;;;;;;;9.59;81.41;100467.19;4973044;28;20034;-64
2022/02/25 06:11:17;;;;;;;46.47;31.05;;;;;;;9.03;80.00;100528.06;4988280;28;20035;-64
2022/02/25 06:13:43;;;;;;;29.27;16.33;;;;;;;8.58;89.38;100501.56;4973945;28;20026;-64
2022/02/25 06:16:08;;;;;;;32.50;20.38;;;;;;;8.66;82.74;100500.63;4972267;28;20049;-64
2022/02/25 06:18:37;;;;;;;60.42;33.92;;;;;;;9.26;86.59;100521.81;4974261;28;20108;-64
2022/02/25 06:21:03;;;;;;;29.42;18.38;;;;;;;8.29;86.88;100442.78;4974287;28;20062;-64
2022/02/25 06:23:28;;;;;;;35.90;20.85;;;;;;;9.06;87.53;100507.72;4988871;28;20456;-64
2022/02/25 06:25:54;;;;;;;44.05;29.92;;;;;;;7.92;92.19;100449.91;4974372;28;20525;-64
2022/02/25 06:28:20;;;;;;;46.20;28.92;;;;;;;7.08;100.00;100483.44;4974445;28;20122;-64
2022/02/25 06:30:45;;;;;;;28.42;15.25;;;;;;;5.73;100.00;100435.06;4973912;28;20100;-64
2022/02/25 06:33:11;;;;;;;55.47;30.85;;;;;;;5.67;100.00;100519.16;4974199;28;20094;-64
2022/02/25 06:35:36;;;;;;;48.97;27.45;;;;;;;6.24;100.00;100515.75;4974057;28;20487;-63
2022/02/25 06:38:01;;;;;;;56.90;32.95;;;;;;;5.71;100.00;100472.91;4973990;28;20408;-64
2022/02/25 06:40:27;;;;;;;54.92;32.70;;;;;;;6.88;100.00;100502.09;4974152;28;20118;-64
2022/02/25 06:42:53;;;;;;;27.42;14.30;;;;;;;7.06;100.00;100475.88;4974010;28;20485;-66
2022/02/25 06:45:20;;;;;;;24.45;14.55;;;;;;;6.84;100.00;100523.16;4973846;28;20038;-67
2022/02/25 06:47:45;;;;;;;20.25;12.63;;;;;;;7.01;100.00;100525.63;4973989;28;20035;-66
2022/02/25 06:50:12;;;;;;;17.10;10.55;;;;;;;6.60;100.00;100470.22;4973513;28;20142;-65
2022/02/25 06:52:38;;;;;;;16.95;10.18;;;;;;;6.78;100.00;100530.78;4973657;28;20031;-66
2022/02/25 06:55:04;;;;;;;18.10;12.13;;;;;;;7.10;100.00;100534.84;4974213;28;20465;-65
2022/02/25 06:57:29;;;;;;;20.50;14.95;;;;;;;7.39;100.00;100511.06;4973569;28;20468;-65
2022/02/25 06:59:55;;;;;;;21.00;12.10;;;;;;;6.29;100.00;100525.84;4973605;28;20037;-65
2022/02/25 07:02:21;;;;;;;23.95;11.18;;;;;;;7.49;100.00;100525.31;4973644;28;20108;-66
2022/02/25 07:04:46;;;;;;;12.80;9.80;;;;;;;7.63;100.00;100527.75;4973634;28;20039;-66
2022/02/25 07:07:12;;;;;;;12.15;9.98;;;;;;;8.31;100.00;100458.81;4973326;28;20045;-66
2022/02/25 07:09:39;;;;;;;18.00;11.02;;;;;;;8.80;100.00;100466.66;4973737;28;20037;-65
2022/02/25 07:12:06;;;;;;;27.90;15.40;;;;;;;8.69;100.00;100536.06;4973387;28;20076;-65
2022/02/25 07:14:33;;;;;;;26.17;16.00;;;;;;;8.90;100.00;100494.41;4973560;28;20035;-65
2022/02/25 07:16:59;;;;;;;19.95;10.85;;;;;;;8.68;100.00;100536.94;4972062;28;20039;-65
2022/02/25 07:19:25;;;;;;;16.15;10.20;;;;;;;9.00;100.00;100540.75;4973414;28;20027;-65
2022/02/25 07:21:50;;;;;;;19.30;9.82;;;;;;;9.10;100.00;100506.81;4973087;28;20110;-65
2022/02/25 07:24:15;;;;;;;12.30;10.05;;;;;;;9.44;100.00;100467.44;4973332;28;20150;-65
2022/02/25 07:26:41;;;;;;;14.30;9.93;;;;;;;9.83;100.00;100476.09;4987924;28;20134;-65
2022/02/25 07:29:08;;;;;;;13.90;10.63;;;;;;;9.63;100.00;100470.53;4973339;28;20050;-65
2022/02/25 07:31:34;;;;;;;12.48;10.02;;;;;;;10.08;100.00;100531.50;4973180;28;20117;-65
2022/02/25 07:33:59;;;;;;;15.45;10.25;;;;;;;9.82;100.00;100520.13;4972856;28;20030;-64
2022/02/25 07:36:25;;;;;;;16.23;9.75;;;;;;;10.31;100.00;100532.00;4984288;28;20031;-63
2022/02/25 07:38:50;;;;;;;11.55;8.85;;;;;;;9.91;100.00;100538.59;4952581;28;20466;-63
2022/02/25 07:41:16;;;;;;;11.88;8.43;;;;;;;9.19;100.00;100478.81;4953513;28;20067;-63
2022/02/25 07:43:41;;;;;;;16.08;9.13;;;;;;;10.09;100.00;100539.97;4952127;28;20042;-63
2022/02/25 07:46:06;;;;;;;10.10;7.78;;;;;;;8.90;100.00;100524.00;4953509;28;20035;-63
2022/02/25 07:48:32;;;;;;;10.77;8.05;;;;;;;9.68;100.00;100527.13;4953406;28;20031;-66
2022/02/25 07:50:58;;;;;;;11.90;8.05;;;;;;;10.44;100.00;100517.34;4953501;28;20031;-63
2022/02/25 07:53:23;;;;;;;16.27;10.00;;;;;;;9.75;100.00;100475.38;4953179;28;20038;-64
2022/02/25 07:55:49;;;;;;;12.13;8.57;;;;;;;9.30;100.00;100476.94;4965687;28;20088;-64
2022/02/25 07:58:14;;;;;;;8.63;6.72;;;;;;;9.06;100.00;100545.75;4972409;28;20065;-65
2022/02/25 08:00:40;;;;;;;16.33;11.40;;;;;;;10.02;100.00;100536.69;4972396;28;20394;-64
2022/02/25 08:03:06;;;;;;;10.90;8.20;;;;;;;10.25;100.00;100521.09;4972359;28;20055;-64
2022/02/25 08:05:32;;;;;;;13.30;8.75;;;;;;;10.01;100.00;100491.00;4972206;28;20093;-63
2022/02/25 08:07:59;;;;;;;13.02;9.02;;;;;;;10.07;100.00;100524.78;4972186;28;20658;-64
2022/02/25 08:10:25;;;;;;;16.00;9.55;;;;;;;9.78;100.00;100521.88;4972535;28;20424;-64
2022/02/25 08:12:50;;;;;;;10.02;7.40;;;;;;;10.55;88.53;100524.78;4972523;28;20027;-63
2022/02/25 08:15:17;;;;;;;11.30;7.57;;;;;;;10.65;84.76;100486.44;4972579;28;20096;-64
2022/02/25 08:17:44;;;;;;;14.80;8.10;;;;;;;10.38;86.67;100531.00;4987035;28;20030;-64
2022/02/25 08:20:10;;;;;;;11.35;8.07;;;;;;;10.12;91.38;100512.03;4970412;28;20042;-63
2022/02/25 08:22:36;;;;;;;10.52;6.80;;;;;;;10.07;88.52;100532.41;4972351;28;20419;-64
2022/02/25 08:25:04;;;;;;;14.00;8.55;;;;;;;8.99;100.00;100539.09;4972228;28;20038;-64
2022/02/25 08:27:30;;;;;;;11.27;6.60;;;;;;;8.48;100.00;100526.16;4972201;28;20046;-63
2022/02/25 08:29:55;;;;;;;8.07;6.18;;;;;;;9.09;100.00;100521.19;4972231;28;20045;-63
2022/02/25 08:32:21;;;;;;;9.93;6.68;;;;;;;9.68;89.49;100412.88;4970678;28;20066;-64
2022/02/25 08:34:46;;;;;;;9.85;5.85;;;;;;;10.10;83.94;100460.41;4972029;28;20084;-64
2022/02/25 08:37:12;;;;;;;9.50;5.70;;;;;;;10.19;81.21;100458.53;4971838;28;20104;-64
2022/02/25 08:39:37;;;;;;;10.50;6.70;;;;;;;10.65;78.95;100447.47;4972150;28;20031;-64
2022/02/25 08:42:03;;;;;;;10.60;6.78;;;;;;;10.31;82.32;100514.22;4971839;28;20480;-64
2022/02/25 08:44:29;;;;;;;11.95;7.43;;;;;;;10.35;83.00;100522.63;4971951;28;20058;-65
2022/02/25 08:46:54;;;;;;;10.23;7.47;;;;;;;11.20;82.03;100511.56;4972223;28;20061;-63
2022/02/25 08:49:20;;;;;;;11.75;7.50;;;;;;;11.02;77.82;100474.63;4971432;28;20031;-64
2022/02/25 08:51:47;;;;;;;11.20;6.80;;;;;;;10.24;79.32;100502.47;4971781;28;20030;-63
2022/02/25 08:54:16;;;;;;;9.40;7.38;;;;;;;9.88;80.69;100514.94;4971915;28;20034;-64
2022/02/25 08:56:41;;;;;;;12.88;8.25;;;;;;;9.98;84.33;100458.88;4986509;28;20122;-63
2022/02/25 08:59:07;;;;;;;13.90;7.80;;;;;;;11.53;79.04;100487.88;4971800;28;20113;-64
2022/02/25 09:01:32;;;;;;;10.52;5.90;;;;;;;10.78;73.20;100497.19;4971652;28;20027;-66
2022/02/25 09:04:01;;;;;;;9.27;5.63;;;;;;;10.43;70.78;100421.66;4971199;28;20054;-65
2022/02/25 09:06:29;;;;;;;11.77;7.18;;;;;;;11.48;74.88;100488.84;4971814;28;20030;-65
2022/02/25 09:08:55;;;;;;;9.02;6.60;;;;;;;11.85;71.69;100498.16;4986487;28;20027;-65
2022/02/25 09:11:22;;;;;;;8.73;6.57;;;;;;;10.37;75.80;100510.72;4971822;28;20031;-63
2022/02/25 09:13:48;;;;;;;7.75;6.50;;;;;;;10.90;74.14;100452.00;4972701;28;20023;-63
2022/02/25 09:16:13;;;;;;;10.98;6.95;;;;;;;11.60;71.47;100440.19;4975427;28;20034;-63
2022/02/25 09:18:38;;;;;;;15.23;9.82;;;;;;;11.90;70.48;100473.41;4974227;28;20054;-64
2022/02/25 09:21:04;;;;;;;8.10;6.38;;;;;;;10.42;72.86;100458.94;4975647;28;20078;-65
2022/02/25 09:23:31;;;;;;;9.70;6.75;;;;;;;10.62;74.40;100409.41;4975477;28;20397;-63
2022/02/25 09:25:57;;;;;;;11.05;6.20;;;;;;;10.78;70.79;100480.22;4975578;28;20523;-63
2022/02/25 09:28:24;;;;;;;9.20;6.38;;;;;;;11.32;69.46;100462.94;4975575;28;20031;-63
2022/02/25 09:30:50;;;;;;;9.80;6.55;;;;;;;11.90;66.44;100419.06;4975242;28;20026;-63
2022/02/25 09:33:16;;;;;;;9.75;6.50;;;;;;;11.15;67.35;100467.56;4974953;28;20520;-65
2022/02/25 09:35:41;;;;;;;8.75;6.00;;;;;;;11.83;68.08;100476.97;4975441;28;20173;-65
2022/02/25 09:38:07;;;;;;;8.13;5.97;;;;;;;10.86;66.62;100401.22;4975317;28;20141;-64
2022/02/25 09:40:33;;;;;;;10.70;5.95;;;;;;;11.90;65.93;100453.03;4975329;28;20114;-66
2022/02/25 09:42:59;;;;;;;6.28;4.85;;;;;;;12.16;65.18;100460.00;4975119;28;20034;-65
2022/02/25 09:45:25;;;;;;;15.65;9.77;;;;;;;12.30;64.56;100449.41;4975155;28;20039;-63
2022/02/25 09:47:50;;;;;;;8.50;6.38;;;;;;;12.34;64.04;100451.00;4974608;28;20019;-63
2022/02/25 09:50:18;;;;;;;25.23;19.02;;;;;;;11.80;61.37;100450.75;4975135;28;20038;-63
2022/02/25 09:52:44;;;;;;;12.30;9.20;;;;;;;12.44;62.04;100383.56;4975027;28;20030;-63
2022/02/25 09:55:19;;;;;;;20.15;8.18;;;;;;;13.07;61.21;100440.38;4989819;28;20027;-63
2022/02/25 09:57:44;;;;;;;11.88;7.93;;;;;;;13.21;59.09;100440.75;4974588;28;20460;-63
2022/02/25 10:00:11;;;;;;;7.15;4.97;;;;;;;12.62;58.25;100434.03;4974743;28;20031;-63
2022/02/25 10:02:42;;;;;;;8.93;6.35;;;;;;;12.26;59.27;100376.44;4974646;28;20076;-66
2022/02/25 10:05:16;;;;;;;9.98;7.05;;;;;;;12.55;59.13;100433.38;4974785;28;20038;-66
2022/02/25 10:07:42;;;;;;;8.85;6.50;;;;;;;13.66;56.80;100416.31;4974557;28;20097;-63
2022/02/25 10:10:09;;;;;;;14.02;6.78;;;;;;;13.38;58.02;100424.91;4974624;28;20041;-64
2022/02/25 10:12:35;;;;;;;9.90;5.22;;;;;;;12.50;57.21;100373.19;4974399;28;20062;-64
2022/02/25 10:15:00;;;;;;;7.57;5.53;;;;;;;12.26;57.57;100412.13;4989231;28;20039;-63
2022/02/25 10:17:27;;;;;;;9.15;5.25;;;;;;;12.55;56.16;100344.13;4974653;28;20042;-63
2022/02/25 10:19:56;;;;;;;10.32;7.05;;;;;;;12.97;55.77;100409.13;4989296;28;20146;-63
2022/02/25 10:22:23;;;;;;;6.78;5.07;;;;;;;14.15;56.80;100392.41;4974487;28;20027;-63
2022/02/25 10:24:51;;;;;;;6.90;5.57;;;;;;;12.69;58.89;100403.22;4973784;28;20039;-62
2022/02/25 10:27:51;;;;;;;8.55;6.47;;;;;;;13.32;57.78;100394.47;4974164;28;20042;-63
2022/02/25 10:30:21;;;;;;;7.28;5.30;;;;;;;13.51;55.91;100359.78;4973759;28;20039;-63
2022/02/25 10:32:48;;;;;;;8.90;6.35;;;;;;;13.22;56.01;100393.09;4989194;28;20035;-64
2022/02/25 10:35:33;;;;;;;8.32;6.28;;;;;;;13.22;55.79;100393.09;4989171;28;20041;-63
2022/02/25 10:38:15;;;;;;;7.30;4.93;;;;;;;14.85;54.11;100382.16;4973857;28;20018;-64
2022/02/25 10:40:52;;;;;;;11.02;7.97;;;;;;;14.34;53.79;100380.66;4974188;28;20022;-64
2022/02/25 10:43:18;;;;;;;8.57;6.25;;;;;;;13.95;56.36;100382.06;4974111;28;20069;-64
2022/02/25 10:45:49;;;;;;;8.40;6.35;;;;;;;13.15;54.89;100282.69;4973972;28;20470;-64
2022/02/25 10:48:17;;;;;;;11.25;5.82;;;;;;;14.10;55.27;100355.97;4973836;28;20030;-64
2022/02/25 10:50:47;;;;;;;32.67;25.13;;;;;;;15.49;52.83;100364.16;4973947;28;20066;-64
2022/02/25 10:53:14;;;;;;;9.57;6.93;;;;;;;14.15;54.38;100325.94;4973784;28;20121;-64
2022/02/25 10:55:40;;;;;;;25.20;17.13;;;;;;;14.84;54.91;100335.22;4973789;28;20030;-64
2022/02/25 10:58:06;;;;;;;19.50;12.05;;;;;;;14.11;55.74;100360.19;4974073;28;20023;-64
2022/02/25 11:00:31;;;;;;;16.02;9.57;;;;;;;15.41;53.58;100321.78;4973540;28;20062;-64
2022/02/25 11:02:59;;;;;;;9.55;6.47;;;;;;;14.92;53.07;100320.41;4971800;28;20047;-64
2022/02/25 11:05:30;;;;;;;14.65;8.45;;;;;;;15.01;53.33;100340.53;4973663;28;20383;-64
2022/02/25 11:07:58;;;;;;;12.25;7.85;;;;;;;14.84;52.92;100342.06;4973741;28;20043;-64
2022/02/25 11:10:26;;;;;;;7.25;5.03;;;;;;;14.36;53.04;100329.47;4988546;28;20093;-64
2022/02/25 11:12:53;;;;;;;11.63;7.50;;;;;;;14.15;53.49;100335.31;4973760;28;20050;-64
2022/02/25 11:15:22;;;;;;;10.93;6.90;;;;;;;14.02;52.83;100337.50;4973271;28;20488;-64
2022/02/25 11:17:49;;;;;;;8.05;4.97;;;;;;;14.29;53.00;100267.47;4973640;28;20031;-64
2022/02/25 11:20:19;;;;;;;10.60;6.47;;;;;;;16.03;51.88;100306.25;4973457;28;20061;-64